Time;durP1;ratioP1;P1;durP2;ratioP2;P2;SDS_P1;SDS_P2;PMS_P1;PMS_P2;Temp;Humidity;BMP_temperature;BMP_pressure;BME280_temperature;BME280_humidity;BME280_pressure;Samples;Min_cycle;Max_cycle;Signal;HPM_P1;HPM_P2
2021/10/28 00:12:15;;;;;;;1.00;1.00;;;;;;;13.18;68.76;102016.94;5043020;28;20412;-80
2021/10/28 00:14:43;;;;;;;0.10;0.10;;;;;;;13.15;68.95;102010.81;5044406;28;20052;-80
2021/10/28 00:17:11;;;;;;;0.22;0.22;;;;;;;13.13;68.66;102005.47;5043793;28;20068;-80
2021/10/28 00:19:40;;;;;;;0.17;0.17;;;;;;;13.12;68.82;102003.72;5042798;28;20028;-78
2021/10/28 00:22:08;;;;;;;0.45;0.45;;;;;;;13.11;68.53;102009.97;5042540;28;20041;-80
2021/10/28 00:24:34;;;;;;;0.20;0.20;;;;;;;13.09;68.34;102004.63;5043861;28;20076;-78
2021/10/28 00:27:00;;;;;;;1.08;0.98;;;;;;;13.06;68.86;102004.69;5045564;28;20503;-78
2021/10/28 00:29:26;;;;;;;0.10;0.10;;;;;;;13.05;68.81;102000.25;5047124;28;20128;-79
2021/10/28 00:31:57;;;;;;;0.30;0.30;;;;;;;13.02;69.06;101991.44;5044026;28;20033;-79
2021/10/28 00:34:24;;;;;;;0.10;0.10;;;;;;;12.99;68.70;101999.47;5044307;28;20034;-79
2021/10/28 00:36:52;;;;;;;0.35;0.35;;;;;;;12.93;68.98;102003.97;5043012;28;20033;-79
2021/10/28 00:39:19;;;;;;;0.68;0.68;;;;;;;12.88;69.02;101997.78;5044984;28;20029;-79
2021/10/28 00:41:46;;;;;;;0.47;0.47;;;;;;;12.83;69.84;101999.63;5045014;28;20029;-80
2021/10/28 00:44:13;;;;;;;0.20;0.20;;;;;;;12.83;69.33;101996.09;5047295;28;20503;-79
2021/10/28 00:46:40;;;;;;;0.10;0.10;;;;;;;12.86;69.31;101988.97;5043573;28;20635;-80
2021/10/28 00:49:09;;;;;;;0.40;0.40;;;;;;;12.88;68.92;101994.25;5044615;28;20029;-80
2021/10/28 00:51:36;;;;;;;0.05;0.05;;;;;;;12.85;68.71;101989.84;5039577;28;20369;-80
2021/10/28 00:54:03;;;;;;;0.10;0.10;;;;;;;12.84;69.10;101988.09;5041944;28;20056;-81
2021/10/28 00:56:32;;;;;;;0.30;0.30;;;;;;;12.82;69.39;101987.19;5046044;28;20116;-80
2021/10/28 00:59:00;;;;;;;0.10;0.10;;;;;;;12.82;69.79;101986.34;5040833;28;20033;-80
2021/10/28 01:01:27;;;;;;;0.30;0.30;;;;;;;12.79;69.62;101980.16;5043909;28;20021;-80
2021/10/28 01:03:54;;;;;;;0.10;0.10;;;;;;;12.82;70.20;101978.34;5041785;28;20064;-81
2021/10/28 01:06:20;;;;;;;0.15;0.15;;;;;;;12.83;69.34;101981.00;5040355;28;20028;-79
2021/10/28 01:08:47;;;;;;;0.15;0.15;;;;;;;12.79;70.14;101974.81;5036190;28;20029;-80
2021/10/28 01:11:14;;;;;;;1.30;0.70;;;;;;;12.83;69.81;101981.00;5029727;28;20389;-80
2021/10/28 01:13:42;;;;;;;0.10;0.10;;;;;;;12.82;69.70;101973.91;5029565;28;20041;-80
2021/10/28 01:16:09;;;;;;;0.10;0.10;;;;;;;12.78;70.32;101970.44;5025771;28;20025;-80
2021/10/28 01:18:38;;;;;;;0.10;0.10;;;;;;;12.79;70.05;101968.63;5028160;28;20484;-80
2021/10/28 01:21:07;;;;;;;0.82;0.82;;;;;;;12.84;69.42;101969.47;5032174;28;20518;-80
2021/10/28 01:23:34;;;;;;;0.55;0.55;;;;;;;12.78;70.24;101969.53;5029135;28;20029;-81
2021/10/28 01:26:05;;;;;;;0.52;0.52;;;;;;;12.78;70.37;101974.84;5031869;28;20059;-80
2021/10/28 01:28:33;;;;;;;0.10;0.10;;;;;;;12.83;70.28;101975.69;5028684;28;20040;-81
2021/10/28 01:31:02;;;;;;;1.10;1.00;;;;;;;12.83;70.11;101975.69;5029584;28;20160;-80
2021/10/28 01:33:29;;;;;;;0.25;0.25;;;;;;;12.77;70.20;101973.09;5031451;28;20064;-81
2021/10/28 01:35:56;;;;;;;0.20;0.20;;;;;;;12.80;70.24;101975.72;5031957;28;20021;-80
2021/10/28 01:38:24;;;;;;;0.28;0.28;;;;;;;12.78;70.21;101969.53;5033150;28;20119;-79
2021/10/28 01:41:01;;;;;;;0.10;0.10;;;;;;;12.83;70.11;101959.72;5032627;28;20072;-80
2021/10/28 01:43:29;;;;;;;0.10;0.10;;;;;;;12.77;70.09;101963.34;5029816;28;20048;-80
2021/10/28 01:45:55;;;;;;;0.73;0.73;;;;;;;12.81;70.04;101961.53;5029350;28;20387;-80
2021/10/28 01:48:24;;;;;;;0.93;0.93;;;;;;;12.78;69.93;101961.56;5031814;28;20485;-80
2021/10/28 01:50:51;;;;;;;0.80;0.80;;;;;;;12.71;70.34;101959.84;5030894;28;20029;-80
2021/10/28 01:53:18;;;;;;;0.10;0.10;;;;;;;12.75;69.57;101962.47;5030835;28;20033;-81
2021/10/28 01:55:44;;;;;;;0.10;0.10;;;;;;;12.73;70.02;101952.75;5029877;28;20559;-80
2021/10/28 01:58:11;;;;;;;0.10;0.10;;;;;;;12.70;70.03;101948.34;5031249;28;20498;-80
2021/10/28 02:00:41;;;;;;;0.20;0.20;;;;;;;12.75;69.42;101951.84;5026064;28;20030;-80
2021/10/28 02:03:07;;;;;;;2.72;1.15;;;;;;;12.72;70.15;101953.66;5023648;28;20029;-79
2021/10/28 02:05:34;;;;;;;0.30;0.30;;;;;;;12.68;70.30;101943.94;5031891;28;20053;-80
2021/10/28 02:08:00;;;;;;;0.10;0.10;;;;;;;12.74;69.88;101946.53;5026689;28;20370;-80
2021/10/28 02:10:26;;;;;;;0.90;0.90;;;;;;;12.70;69.77;101945.69;5023939;28;20083;-80
2021/10/28 02:12:56;;;;;;;0.10;0.10;;;;;;;12.69;69.43;101940.41;5022715;28;20058;-80
2021/10/28 02:15:23;;;;;;;0.10;0.10;;;;;;;12.68;69.87;101938.63;5028868;28;20041;-80
2021/10/28 02:17:50;;;;;;;0.40;0.40;;;;;;;12.69;69.06;101929.75;5033499;28;20037;-80
2021/10/28 02:20:17;;;;;;;0.50;0.50;;;;;;;12.68;69.64;101933.31;5023494;28;20029;-80
2021/10/28 02:22:45;;;;;;;0.10;0.10;;;;;;;12.61;69.84;101932.47;5032170;28;20065;-80
2021/10/28 02:25:12;;;;;;;0.10;0.10;;;;;;;12.63;69.09;101930.69;5026220;28;20029;-80
2021/10/28 02:27:39;;;;;;;0.63;0.63;;;;;;;12.58;69.61;101925.41;5025225;28;20087;-81
2021/10/28 02:30:08;;;;;;;1.88;1.38;;;;;;;12.59;69.53;101932.50;5025188;28;20061;-79
2021/10/28 02:32:35;;;;;;;0.25;0.25;;;;;;;12.54;70.24;101934.34;5031610;28;20057;-80
2021/10/28 02:35:01;;;;;;;0.20;0.20;;;;;;;12.59;69.45;101931.63;5023286;28;20041;-80
2021/10/28 02:37:28;;;;;;;1.02;0.98;;;;;;;12.57;69.37;101931.66;5027944;28;20116;-81
2021/10/28 02:39:54;;;;;;;0.50;0.50;;;;;;;12.58;69.29;101925.41;5025364;28;20026;-78
2021/10/28 02:42:21;;;;;;;0.10;0.10;;;;;;;12.59;69.16;101927.19;5029569;28;20113;-78
2021/10/28 02:44:48;;;;;;;0.10;0.10;;;;;;;12.58;68.94;101920.09;5032271;28;20036;-81
2021/10/28 02:47:14;;;;;;;0.10;0.10;;;;;;;12.56;69.22;101924.56;5033555;28;20076;-79
2021/10/28 02:49:40;;;;;;;0.20;0.20;;;;;;;12.54;68.68;101921.03;5033408;28;20165;-79
2021/10/28 02:52:07;;;;;;;0.10;0.10;;;;;;;12.52;68.56;101912.19;5033603;28;20053;-79
2021/10/28 02:54:34;;;;;;;0.17;0.17;;;;;;;12.51;68.95;101907.81;5032661;28;20037;-80
2021/10/28 02:57:01;;;;;;;1.08;1.08;;;;;;;12.46;69.04;101907.84;5032737;28;20033;-80
2021/10/28 02:59:27;;;;;;;1.05;0.95;;;;;;;12.40;69.66;101904.34;5031963;28;20049;-80
2021/10/28 03:01:55;;;;;;;0.08;0.08;;;;;;;12.44;69.03;101904.31;5033172;28;20041;-81
2021/10/28 03:04:24;;;;;;;2.28;1.48;;;;;;;12.45;68.44;101894.59;5033319;28;20029;-80
2021/10/28 03:06:52;;;;;;;0.88;0.88;;;;;;;12.41;68.74;101887.50;5033053;28;20052;-79
2021/10/28 03:09:23;;;;;;;1.05;0.75;;;;;;;12.39;68.07;101884.88;5033151;28;20030;-81
2021/10/28 03:11:52;;;;;;;0.20;0.20;;;;;;;12.36;68.38;101879.63;5033135;28;20029;-80
2021/10/28 03:14:23;;;;;;;0.17;0.17;;;;;;;12.33;68.39;101884.94;5032942;28;20045;-80
2021/10/28 03:17:02;;;;;;;0.10;0.10;;;;;;;12.32;67.83;101884.97;5029537;28;20480;-79
2021/10/28 03:19:40;;;;;;;0.10;0.10;;;;;;;12.26;68.35;101889.47;5031021;28;20382;-79
2021/10/28 03:25:36;;;;;;;0.10;0.10;;;;;;;12.21;67.86;101885.97;5025017;28;20041;-80
2021/10/28 03:27:48;;;;;;;0.10;0.10;;;;;;;12.14;68.49;101884.25;5027625;28;20140;-81
2021/10/28 03:30:14;;;;;;;0.20;0.20;;;;;;;12.11;68.09;101879.88;5033029;28;20025;-80
2021/10/28 03:32:41;;;;;;;0.10;0.10;;;;;;;12.11;67.84;101873.66;5027676;28;20034;-80
2021/10/28 03:35:11;;;;;;;0.00;0.00;;;;;;;12.08;68.00;101868.38;5032653;28;20034;-80
2021/10/28 03:37:43;;;;;;;0.30;0.30;;;;;;;12.05;68.41;101868.41;5028659;28;20041;-79
2021/10/28 03:40:28;;;;;;;0.57;0.57;;;;;;;12.04;68.22;101871.97;5027627;28;20464;-80
2021/10/28 03:51:45;;;;;;;0.10;0.10;;;;;;;12.02;68.51;101857.81;5107687;27;20404;-79
2021/10/28 03:54:21;;;;;;;0.35;0.35;;;;;;;12.03;68.64;101849.81;5092976;28;20040;-81
2021/10/28 03:57:09;;;;;;;0.68;0.68;;;;;;;12.01;68.73;101850.75;5085184;28;20123;-80
2021/10/28 04:08:16;;;;;;;0.05;0.05;;;;;;;11.96;68.31;101849.00;5042940;28;20110;-78
2021/10/28 04:28:53;;;;;;;0.08;0.08;;;;;;;11.87;67.63;101849.06;5040687;28;20038;-80
2021/10/28 04:29:48;;;;;;;0.10;0.10;;;;;;;11.87;67.35;101849.06;5040241;28;20477;-81
2021/10/28 04:32:14;;;;;;;0.00;0.00;;;;;;;11.86;67.46;101847.28;5037462;28;20030;-80
2021/10/28 04:34:43;;;;;;;0.10;0.10;;;;;;;11.84;67.88;101842.88;5041691;28;20472;-81
2021/10/28 04:37:10;;;;;;;0.05;0.05;;;;;;;11.81;67.69;101838.50;5043523;28;20033;-80
2021/10/28 04:39:37;;;;;;;0.10;0.10;;;;;;;11.79;67.38;101837.66;5048289;28;20061;-80
2021/10/28 04:42:03;;;;;;;0.10;0.10;;;;;;;11.77;67.65;101847.38;5038858;28;20056;-80
2021/10/28 04:44:29;;;;;;;0.20;0.20;;;;;;;11.74;67.72;101837.69;5047508;28;20033;-80
2021/10/28 04:46:56;;;;;;;0.17;0.17;;;;;;;11.73;67.73;101838.56;5019992;28;20030;-80
2021/10/28 04:49:22;;;;;;;0.10;0.10;;;;;;;11.72;67.37;101833.28;5044753;28;20037;-80
2021/10/28 04:51:50;;;;;;;0.32;0.32;;;;;;;11.70;66.95;101846.56;5045439;28;20114;-80
2021/10/28 04:54:16;;;;;;;0.10;0.10;;;;;;;11.73;67.38;101846.53;5015361;28;20123;-80
2021/10/28 04:56:42;;;;;;;0.20;0.20;;;;;;;11.69;67.43;101843.91;5046737;28;20083;-80
2021/10/28 04:59:09;;;;;;;0.10;0.10;;;;;;;11.69;67.16;101842.16;5047663;28;20431;-79
2021/10/28 05:01:36;;;;;;;0.10;0.10;;;;;;;11.63;67.59;101837.75;5048130;28;20246;-80
2021/10/28 05:04:02;;;;;;;0.30;0.30;;;;;;;11.62;67.68;101838.66;5046306;28;20191;-80
2021/10/28 05:06:28;;;;;;;0.10;0.10;;;;;;;11.61;67.37;101831.59;5044696;28;20037;-80
2021/10/28 05:08:54;;;;;;;0.10;0.10;;;;;;;11.57;67.61;101837.81;5045005;28;20499;-81
2021/10/28 05:11:23;;;;;;;0.40;0.40;;;;;;;11.54;68.20;101840.50;5048194;28;20124;-80
2021/10/28 05:13:51;;;;;;;0.10;0.10;;;;;;;11.53;68.03;101837.88;5042959;28;20495;-80
2021/10/28 05:16:17;;;;;;;0.10;0.10;;;;;;;11.51;67.99;101835.19;5025529;28;20109;-80
2021/10/28 05:18:45;;;;;;;0.20;0.20;;;;;;;11.51;67.99;101835.19;5038347;28;20039;-80
2021/10/28 05:21:13;;;;;;;0.30;0.30;;;;;;;11.44;68.05;101839.69;5035793;28;20468;-81
2021/10/28 05:23:40;;;;;;;0.10;0.10;;;;;;;11.45;67.81;101835.25;5038559;28;20043;-79
2021/10/28 05:26:07;;;;;;;0.40;0.40;;;;;;;11.46;68.20;101839.66;5039712;28;20041;-80
2021/10/28 05:28:34;;;;;;;0.40;0.40;;;;;;;11.43;68.01;101839.72;5039714;28;20048;-80
2021/10/28 05:31:01;;;;;;;0.15;0.15;;;;;;;11.38;68.50;101838.88;5037766;28;20052;-80
2021/10/28 05:33:27;;;;;;;0.68;0.65;;;;;;;11.38;68.06;101830.91;5041798;28;20033;-80
2021/10/28 05:35:53;;;;;;;0.88;0.88;;;;;;;11.37;67.80;101822.03;5025400;28;20600;-80
2021/10/28 05:38:21;;;;;;;0.10;0.10;;;;;;;11.33;68.20;101828.28;5029409;28;20041;-80
2021/10/28 05:40:47;;;;;;;0.13;0.13;;;;;;;11.33;68.26;101817.66;5033080;28;20032;-80
2021/10/28 05:43:13;;;;;;;0.45;0.45;;;;;;;11.29;68.61;101813.25;5033411;28;20120;-80
2021/10/28 05:45:40;;;;;;;0.10;0.10;;;;;;;11.29;68.53;101811.50;5025141;28;20037;-80
2021/10/28 05:48:06;;;;;;;0.10;0.10;;;;;;;11.25;68.71;101817.72;5027573;28;20033;-79
2021/10/28 05:50:33;;;;;;;0.10;0.10;;;;;;;11.26;68.98;101816.81;5030143;28;20061;-80
2021/10/28 05:53:00;;;;;;;0.10;0.10;;;;;;;11.28;68.59;101817.69;5029966;28;20545;-80
2021/10/28 05:55:27;;;;;;;0.50;0.50;;;;;;;11.29;68.77;101819.47;5031600;28;20469;-80
2021/10/28 05:57:54;;;;;;;0.10;0.10;;;;;;;11.31;68.71;101816.78;5020852;28;20635;-80
2021/10/28 06:00:22;;;;;;;0.10;0.10;;;;;;;11.32;68.58;101819.41;5025584;28;20052;-78
2021/10/28 06:02:48;;;;;;;0.10;0.10;;;;;;;11.32;68.20;101816.75;5026273;28;20128;-79
2021/10/28 06:05:14;;;;;;;0.10;0.10;;;;;;;11.36;68.36;101814.09;5029170;28;20045;-79
2021/10/28 06:07:42;;;;;;;0.10;0.10;;;;;;;11.35;69.03;101815.88;5026724;28;20037;-81
2021/10/28 06:10:11;;;;;;;0.17;0.17;;;;;;;11.37;68.93;101822.03;5019749;28;20042;-80
2021/10/28 06:12:40;;;;;;;0.00;0.00;;;;;;;11.42;69.56;101824.69;5034744;28;20060;-80
2021/10/28 06:15:07;;;;;;;0.10;0.10;;;;;;;11.45;69.41;101821.97;5034399;28;20404;-79
2021/10/28 06:17:37;;;;;;;0.10;0.10;;;;;;;11.47;69.69;101814.91;5034676;28;20100;-80
2021/10/28 06:20:04;;;;;;;0.10;0.10;;;;;;;11.52;69.36;101812.22;5034602;28;20033;-79
2021/10/28 06:22:31;;;;;;;0.10;0.10;;;;;;;11.55;69.17;101815.72;5033676;28;20492;-80
2021/10/28 06:24:57;;;;;;;7.65;1.70;;;;;;;11.56;69.38;101812.16;5034369;28;20080;-80
2021/10/28 06:27:24;;;;;;;0.75;0.75;;;;;;;11.57;69.10;101808.63;5033842;28;20061;-80
2021/10/28 06:29:50;;;;;;;0.25;0.25;;;;;;;11.62;69.22;101803.28;5031019;28;20065;-79
2021/10/28 06:32:16;;;;;;;0.30;0.30;;;;;;;11.62;69.10;101801.47;5033726;28;20083;-79
2021/10/28 06:34:44;;;;;;;0.55;0.55;;;;;;;11.62;69.70;101795.31;5033472;28;20452;-79
2021/10/28 06:37:10;;;;;;;0.20;0.20;;;;;;;11.66;69.17;101794.38;5033291;28;20400;-80
2021/10/28 06:39:37;;;;;;;2.20;0.95;;;;;;;11.69;69.52;101796.13;5033322;28;20026;-80
2021/10/28 06:42:05;;;;;;;0.10;0.10;;;;;;;11.64;70.14;101788.22;5033303;28;20060;-80
2021/10/28 06:44:31;;;;;;;0.10;0.10;;;;;;;11.71;69.32;101794.34;5031917;28;20041;-80
2021/10/28 06:46:57;;;;;;;0.10;0.10;;;;;;;11.72;69.59;101793.44;5031814;28;20533;-80
2021/10/28 06:49:24;;;;;;;0.30;0.30;;;;;;;11.74;69.47;101794.28;5032986;28;20033;-80
2021/10/28 06:51:51;;;;;;;0.98;0.90;;;;;;;11.73;69.89;101789.91;5033288;28;20024;-80
2021/10/28 06:54:23;;;;;;;0.52;0.52;;;;;;;11.77;69.24;101786.31;5032241;28;20018;-80
2021/10/28 07:02:37;;;;;;;0.03;0.03;;;;;;;11.80;69.69;101797.78;5028870;28;20037;-80
2021/10/28 07:05:05;;;;;;;0.90;0.63;;;;;;;11.88;69.17;101794.19;5009969;28;20503;-79
2021/10/28 07:07:33;;;;;;;0.10;0.10;;;;;;;11.87;69.33;101790.63;5029923;28;20029;-79
2021/10/28 07:10:07;;;;;;;0.10;0.10;;;;;;;11.91;69.27;101800.34;5031511;28;20017;-79
2021/10/28 07:12:42;;;;;;;0.03;0.03;;;;;;;11.87;69.28;101790.63;5031150;28;20076;-79
2021/10/28 07:15:17;;;;;;;0.20;0.20;;;;;;;11.93;69.67;101795.88;5030995;28;20060;-80
2021/10/28 07:18:02;;;;;;;0.00;0.00;;;;;;;11.94;69.06;101795.00;5030651;28;20033;-80
2021/10/28 07:29:08;;;;;;;0.25;0.25;;;;;;;12.18;69.82;101793.00;5025947;28;20042;-79
2021/10/28 07:55:02;;;;;;;0.10;0.10;;;;;;;12.21;69.52;101768.16;5100719;27;20200;-79
2021/10/28 07:57:14;;;;;;;1.15;0.85;;;;;;;12.40;68.94;101763.50;5077869;28;20040;-80
2021/10/28 07:59:25;;;;;;;0.10;0.10;;;;;;;12.45;69.82;101762.53;5080917;28;20067;-81
2021/10/28 08:16:12;;;;;;;0.08;0.08;;;;;;;12.73;69.46;101734.69;5075972;28;20040;-80
2021/10/28 08:18:43;;;;;;;0.13;0.13;;;;;;;12.77;69.12;101731.97;5083147;28;20068;-81
2021/10/28 08:29:35;;;;;;;1.23;0.35;;;;;;;13.08;69.20;101730.63;5095594;28;20140;-80
2021/10/28 08:32:03;;;;;;;0.47;0.47;;;;;;;13.13;69.19;101727.88;5102591;28;20028;-80
2021/10/28 08:34:33;;;;;;;0.35;0.35;;;;;;;13.21;68.89;101716.22;5104835;28;20020;-79
2021/10/28 08:37:08;;;;;;;0.13;0.13;;;;;;;13.24;68.67;101708.16;5103615;28;20032;-80
2021/10/28 08:39:34;;;;;;;0.73;0.73;;;;;;;13.32;68.39;101707.16;5101221;28;20028;-79
2021/10/28 08:42:05;;;;;;;4.38;0.57;;;;;;;13.39;68.36;101703.50;5090012;28;20056;-80
2021/10/28 08:44:33;;;;;;;0.10;0.10;;;;;;;13.47;68.59;101696.28;5091064;28;20036;-79
2021/10/28 08:47:01;;;;;;;1.17;1.13;;;;;;;13.54;68.69;101692.56;5088752;28;20021;-79
2021/10/28 08:49:34;;;;;;;0.10;0.10;;;;;;;13.64;68.12;101687.09;5089435;28;20023;-79
2021/10/28 08:54:55;;;;;;;0.75;0.73;;;;;;;13.75;67.84;101695.75;5099439;27;20393;-80
2021/10/28 08:57:38;;;;;;;0.10;0.10;;;;;;;13.77;67.80;101688.63;5079714;28;20656;-80
2021/10/28 09:26:40;;;;;;;0.20;0.20;;;;;;;14.65;65.55;101652.03;5066538;28;20071;-80
2021/10/28 09:29:15;;;;;;;0.10;0.10;;;;;;;14.71;65.72;101653.69;5061378;28;20040;-80
2021/10/28 09:31:55;;;;;;;1.10;1.00;;;;;;;14.90;65.01;101646.13;5062909;28;20032;-80
2021/10/28 09:34:32;;;;;;;0.10;0.10;;;;;;;14.90;65.03;101639.91;5061449;28;20111;-81
2021/10/28 09:51:45;;;;;;;0.10;0.10;;;;;;;15.50;63.41;101616.94;5062433;28;20801;-80
2021/10/28 10:05:15;;;;;;;1.70;0.50;;;;;;;15.96;62.30;101606.75;5068965;27;20431;-80
2021/10/28 10:07:43;;;;;;;1.02;0.50;;;;;;;16.07;62.51;101599.25;5046162;28;20025;-80
2021/10/28 10:10:09;;;;;;;0.60;0.60;;;;;;;16.06;61.82;101602.00;5046161;28;20379;-80
2021/10/28 10:12:37;;;;;;;0.15;0.15;;;;;;;16.23;62.18;101596.13;5047602;28;20030;-80
2021/10/28 10:15:05;;;;;;;0.30;0.30;;;;;;;16.20;61.94;101599.78;5047386;28;20033;-80
2021/10/28 10:17:32;;;;;;;1.08;0.95;;;;;;;16.34;60.73;101591.31;5047476;28;20399;-80
2021/10/28 10:20:00;;;;;;;0.32;0.32;;;;;;;16.42;61.45;101583.88;5047313;28;20057;-80
2021/10/28 10:22:56;;;;;;;0.10;0.10;;;;;;;16.52;60.26;101583.59;5045948;28;20188;-80
2021/10/28 10:29:29;;;;;;;0.80;0.80;;;;;;;16.69;59.43;101581.25;5068714;27;20478;-80
2021/10/28 11:21:10;;;;;;;0.10;0.10;;;;;;;18.42;55.40;101525.69;5055570;28;21159;-79
2021/10/28 12:17:29;;;;;;;0.40;0.40;;;;;;;19.66;51.04;101440.41;5029310;28;20041;-80
2021/10/28 12:27:46;;;;;;;0.55;0.52;;;;;;;19.65;49.48;101432.44;5153941;27;20469;-80
2021/10/28 12:28:59;;;;;;;0.43;0.43;;;;;;;19.75;49.82;101424.78;5115627;27;20104;-80
2021/10/28 12:43:30;;;;;;;0.10;0.10;;;;;;;19.73;51.06;101414.97;5125021;28;20092;-80
2021/10/28 12:45:57;;;;;;;0.20;0.20;;;;;;;19.96;49.28;101394.19;5110378;28;20117;-80
2021/10/28 12:51:33;;;;;;;0.10;0.10;;;;;;;20.13;50.08;101379.00;5069483;28;21113;-80
2021/10/28 12:57:07;;;;;;;0.20;0.20;;;;;;;20.13;49.18;101369.09;5056517;27;20407;-81
2021/10/28 13:02:44;;;;;;;0.20;0.20;;;;;;;20.13;48.61;101368.25;5028760;28;20405;-79
2021/10/28 13:37:43;;;;;;;3.50;0.82;;;;;;;20.24;47.65;101344.31;5060955;28;20127;-80
2021/10/28 13:47:59;;;;;;;1.55;0.63;;;;;;;20.35;48.23;101344.63;5051636;28;20045;-79
2021/10/28 13:49:51;;;;;;;0.10;0.10;;;;;;;20.28;48.54;101324.38;5058296;28;20039;-80
2021/10/28 13:58:08;;;;;;;0.60;0.60;;;;;;;20.27;48.24;101303.78;5052919;27;20420;-80
2021/10/28 14:15:05;;;;;;;0.10;0.08;;;;;;;20.24;47.65;101314.72;5070723;28;20409;-79
2021/10/28 14:20:23;;;;;;;0.10;0.10;;;;;;;20.09;48.08;101294.91;5064436;28;20032;-82
2021/10/28 14:23:03;;;;;;;0.10;0.10;;;;;;;20.09;48.08;101294.91;5063376;28;20539;-80
2021/10/28 14:34:48;;;;;;;0.38;0.38;;;;;;;19.98;48.71;101291.91;5083790;28;20421;-80
2021/10/28 14:37:26;;;;;;;0.65;0.65;;;;;;;20.00;48.94;101293.56;5054309;28;20033;-81
2021/10/28 15:29:31;;;;;;;0.13;0.13;;;;;;;18.80;52.38;101251.16;5083845;28;20504;-80
2021/10/28 15:32:21;;;;;;;0.10;0.10;;;;;;;18.76;52.47;101245.91;5074499;28;20040;-80
2021/10/28 15:34:57;;;;;;;0.10;0.10;;;;;;;18.68;52.49;101248.13;5072039;28;20596;-81
2021/10/28 15:40:18;;;;;;;0.30;0.30;;;;;;;18.48;53.25;101232.06;5079124;28;20036;-81
2021/10/28 15:51:46;;;;;;;0.10;0.10;;;;;;;17.99;54.12;101238.75;5049711;28;20198;-79
2021/10/28 15:54:03;;;;;;;0.13;0.13;;;;;;;17.96;54.24;101233.53;5046861;28;20059;-81
2021/10/28 16:21:57;;;;;;;0.10;0.10;;;;;;;16.90;56.70;101214.75;5025101;28;20084;-79
2021/10/28 16:24:12;;;;;;;0.30;0.30;;;;;;;16.84;56.72;101215.88;5021937;28;20034;-79
2021/10/28 16:26:38;;;;;;;0.10;0.10;;;;;;;16.78;56.50;101208.94;5017314;28;20029;-80
2021/10/28 16:29:07;;;;;;;1.45;0.65;;;;;;;16.68;56.83;101212.94;5015276;28;20085;-80
2021/10/28 16:31:35;;;;;;;0.10;0.10;;;;;;;16.59;57.07;101205.28;5022112;28;20026;-78
2021/10/28 16:34:02;;;;;;;0.90;0.80;;;;;;;16.49;57.46;101205.63;5023526;28;20033;-81
2021/10/28 16:36:28;;;;;;;0.10;0.10;;;;;;;16.41;57.21;101201.50;5017521;28;20029;-80
2021/10/28 16:38:55;;;;;;;10.95;2.38;;;;;;;16.30;57.53;101204.63;5017241;28;20053;-79
2021/10/28 16:41:21;;;;;;;0.30;0.30;;;;;;;16.22;57.87;101204.03;5020573;28;20036;-79
2021/10/28 16:43:47;;;;;;;0.52;0.52;;;;;;;16.11;58.37;101210.66;5022496;28;20056;-78
2021/10/28 16:46:14;;;;;;;0.30;0.30;;;;;;;16.08;57.71;101208.09;5024413;28;20440;-80
2021/10/28 16:48:41;;;;;;;0.85;0.60;;;;;;;16.00;57.52;101205.69;5017472;28;20034;-80
2021/10/28 16:51:07;;;;;;;0.10;0.10;;;;;;;15.89;58.61;101207.00;5052002;28;20024;-79
2021/10/28 16:53:33;;;;;;;0.00;0.00;;;;;;;15.80;59.13;101203.72;5061676;28;20116;-81
2021/10/28 16:56:00;;;;;;;0.13;0.13;;;;;;;15.73;59.32;101204.88;5051535;28;20064;-81
2021/10/28 16:58:28;;;;;;;0.10;0.10;;;;;;;15.67;59.00;101194.41;5053411;28;20029;-80
2021/10/28 17:00:54;;;;;;;0.10;0.10;;;;;;;15.61;59.48;101192.81;5049487;28;20111;-81
2021/10/28 17:03:20;;;;;;;0.10;0.10;;;;;;;15.56;59.55;101188.56;5049906;28;20399;-82
2021/10/28 17:05:47;;;;;;;0.10;0.10;;;;;;;15.49;59.37;101196.81;5052561;28;20075;-81
2021/10/28 17:08:14;;;;;;;0.10;0.10;;;;;;;15.45;59.52;101199.63;5053668;28;20025;-81
2021/10/28 17:10:41;;;;;;;0.08;0.08;;;;;;;15.39;59.89;101195.38;5050814;28;20037;-81
2021/10/28 17:13:08;;;;;;;0.05;0.05;;;;;;;15.34;59.66;101197.34;5050049;28;20482;-83
2021/10/28 17:15:35;;;;;;;0.10;0.10;;;;;;;15.29;60.06;101188.59;5040907;28;20079;-82
2021/10/28 17:18:01;;;;;;;0.20;0.20;;;;;;;15.25;60.08;101197.66;5039340;28;20083;-82
2021/10/28 17:20:33;;;;;;;0.10;0.10;;;;;;;15.15;60.03;101191.75;5047959;28;20113;-79
2021/10/28 17:23:00;;;;;;;0.75;0.75;;;;;;;15.09;60.15;101187.50;5043844;28;20075;-81
2021/10/28 17:25:27;;;;;;;0.13;0.13;;;;;;;15.02;60.67;101176.13;5052948;28;20033;-81
2021/10/28 17:27:53;;;;;;;0.10;0.10;;;;;;;14.95;60.71;101179.06;5043545;28;20021;-81
2021/10/28 17:30:20;;;;;;;0.17;0.17;;;;;;;14.86;60.40;101181.09;5038964;28;20034;-81
2021/10/28 17:32:46;;;;;;;0.40;0.40;;;;;;;14.78;61.58;101183.16;5045167;28;20100;-81
2021/10/28 17:35:14;;;;;;;0.10;0.10;;;;;;;14.74;61.46;101184.16;5040083;28;20026;-81
2021/10/28 17:37:41;;;;;;;0.10;0.10;;;;;;;14.65;62.16;101184.47;5044091;28;20112;-81
2021/10/28 17:40:08;;;;;;;0.63;0.63;;;;;;;14.64;61.11;101175.56;5040624;28;20021;-81
2021/10/28 17:42:35;;;;;;;0.30;0.30;;;;;;;14.57;62.41;101174.88;5042214;28;20029;-81
2021/10/28 17:45:03;;;;;;;0.00;0.00;;;;;;;14.57;61.61;101172.19;5042274;28;20025;-81
2021/10/28 17:47:30;;;;;;;0.65;0.65;;;;;;;14.57;62.74;101163.34;5044597;28;20529;-81
2021/10/28 17:49:56;;;;;;;0.10;0.10;;;;;;;14.57;62.09;101174.00;5052336;28;20128;-82
2021/10/28 17:52:23;;;;;;;1.55;0.90;;;;;;;14.59;62.95;101169.47;5039759;28;20030;-81
2021/10/28 17:54:49;;;;;;;0.10;0.10;;;;;;;14.60;63.03;101170.38;5043626;28;20116;-81
2021/10/28 17:57:15;;;;;;;2.20;1.05;;;;;;;14.61;62.76;101164.97;5041432;28;20032;-81
2021/10/28 17:59:42;;;;;;;0.30;0.30;;;;;;;14.57;63.17;101172.19;5041247;28;20033;-81
2021/10/28 18:02:10;;;;;;;0.35;0.35;;;;;;;14.61;62.86;101175.66;5048314;28;20083;-81
2021/10/28 18:04:36;;;;;;;0.10;0.10;;;;;;;14.62;63.00;101176.53;5045939;28;20029;-81
2021/10/28 18:07:03;;;;;;;0.03;0.03;;;;;;;14.66;62.76;101186.22;5040272;28;20108;-81
2021/10/28 18:09:30;;;;;;;0.22;0.22;;;;;;;14.67;62.08;101185.28;5044395;28;20037;-81
2021/10/28 18:11:56;;;;;;;0.10;0.10;;;;;;;14.62;62.80;101185.41;5047687;28;20063;-81
2021/10/28 18:14:27;;;;;;;0.08;0.08;;;;;;;14.65;62.22;101188.00;5041720;28;20033;-81
2021/10/28 18:16:54;;;;;;;0.10;0.10;;;;;;;14.63;62.24;101184.50;5039830;28;20064;-81
2021/10/28 18:19:21;;;;;;;0.10;0.10;;;;;;;14.61;62.23;101180.13;5047026;28;20049;-81
2021/10/28 18:21:53;;;;;;;0.10;0.10;;;;;;;14.57;62.59;101176.69;5029430;28;20100;-81
2021/10/28 18:24:19;;;;;;;0.10;0.10;;;;;;;14.53;63.07;101175.03;5039522;28;20028;-81
2021/10/28 18:26:45;;;;;;;0.10;0.10;;;;;;;14.53;62.63;101175.03;5042459;28;20025;-81
2021/10/28 18:29:11;;;;;;;0.15;0.15;;;;;;;14.47;63.04;101167.22;5047674;28;20026;-81
2021/10/28 18:31:38;;;;;;;0.10;0.10;;;;;;;14.47;63.03;101168.09;5043807;28;20075;-81
2021/10/28 18:34:05;;;;;;;0.20;0.20;;;;;;;14.49;62.63;101166.25;5039788;28;20164;-81
2021/10/28 18:36:34;;;;;;;0.10;0.10;;;;;;;14.45;62.87;101169.91;5053585;28;20025;-81
2021/10/28 18:39:01;;;;;;;0.00;0.00;;;;;;;14.50;62.45;101162.66;5039365;28;20108;-81
2021/10/28 18:41:27;;;;;;;0.10;0.10;;;;;;;14.49;62.46;101171.59;5046809;28;20087;-81
2021/10/28 18:43:55;;;;;;;0.10;0.10;;;;;;;14.46;62.70;101161.00;5046565;28;20063;-82
2021/10/28 18:46:22;;;;;;;0.10;0.10;;;;;;;14.43;62.75;101169.13;5039255;28;20029;-81
2021/10/28 18:48:51;;;;;;;0.10;0.10;;;;;;;14.41;62.66;101160.28;5042042;28;20384;-81
2021/10/28 18:51:18;;;;;;;0.15;0.15;;;;;;;14.29;63.17;101158.00;5047529;28;20131;-81
2021/10/28 18:53:46;;;;;;;0.20;0.20;;;;;;;14.28;63.02;101157.13;5043302;28;20021;-81
2021/10/28 18:56:13;;;;;;;0.10;0.10;;;;;;;14.30;62.80;101157.94;5036872;28;20427;-81
2021/10/28 18:58:39;;;;;;;0.10;0.10;;;;;;;14.30;63.23;101159.75;5047307;28;20086;-79
2021/10/28 19:01:06;;;;;;;1.85;0.60;;;;;;;14.29;62.55;101158.84;5039547;28;20459;-84
2021/10/28 19:03:33;;;;;;;0.10;0.10;;;;;;;14.28;63.31;101161.56;5040507;28;20134;-83
2021/10/28 19:06:00;;;;;;;0.10;0.10;;;;;;;14.27;63.22;101154.50;5048751;28;20033;-83